sensor_id;sensor_type;location;lat;lon;timestamp;temperature;humidity
35246;DHT22;21379;50.962;6.960;2023-03-04T00:01:26;3.40;99.90
35246;DHT22;21379;50.962;6.960;2023-03-04T00:03:53;3.40;99.90
35246;DHT22;21379;50.962;6.960;2023-03-04T00:06:20;3.50;99.90
35246;DHT22;21379;50.962;6.960;2023-03-04T00:08:47;3.50;99.90
35246;DHT22;21379;50.962;6.960;2023-03-04T00:11:13;3.40;99.90
35246;DHT22;21379;50.962;6.960;2023-03-04T00:13:40;3.40;99.90
35246;DHT22;21379;50.962;6.960;2023-03-04T00:16:08;3.30;99.90
35246;DHT22;21379;50.962;6.960;2023-03-04T00:18:35;3.40;99.90
35246;DHT22;21379;50.962;6.960;2023-03-04T00:21:02;3.40;99.90
35246;DHT22;21379;50.962;6.960;2023-03-04T00:23:29;3.40;99.90
35246;DHT22;21379;50.962;6.960;2023-03-04T00:25:56;3.50;99.90
35246;DHT22;21379;50.962;6.960;2023-03-04T00:28:23;3.50;99.90
35246;DHT22;21379;50.962;6.960;2023-03-04T00:30:49;3.40;99.90
35246;DHT22;21379;50.962;6.960;2023-03-04T00:33:18;3.50;99.90
35246;DHT22;21379;50.962;6.960;2023-03-04T00:35:44;3.50;99.90
35246;DHT22;21379;50.962;6.960;2023-03-04T00:38:11;3.50;99.90
35246;DHT22;21379;50.962;6.960;2023-03-04T00:40:38;3.60;99.90
35246;DHT22;21379;50.962;6.960;2023-03-04T00:43:05;3.60;99.90
35246;DHT22;21379;50.962;6.960;2023-03-04T00:45:32;3.60;99.90
35246;DHT22;21379;50.962;6.960;2023-03-04T00:47:58;3.60;99.90
35246;DHT22;21379;50.962;6.960;2023-03-04T00:50:26;3.60;99.90
35246;DHT22;21379;50.962;6.960;2023-03-04T00:52:53;3.60;99.90
35246;DHT22;21379;50.962;6.960;2023-03-04T00:55:20;3.60;99.90
35246;DHT22;21379;50.962;6.960;2023-03-04T00:57:47;3.60;99.90
35246;DHT22;21379;50.962;6.960;2023-03-04T01:00:14;3.60;99.90
35246;DHT22;21379;50.962;6.960;2023-03-04T01:02:41;3.60;99.90
35246;DHT22;21379;50.962;6.960;2023-03-04T01:05:09;3.70;99.90
35246;DHT22;21379;50.962;6.960;2023-03-04T01:07:37;3.70;99.90
35246;DHT22;21379;50.962;6.960;2023-03-04T01:10:06;3.80;99.90
35246;DHT22;21379;50.962;6.960;2023-03-04T01:12:33;3.80;99.90
35246;DHT22;21379;50.962;6.960;2023-03-04T01:15:00;3.80;99.90
35246;DHT22;21379;50.962;6.960;2023-03-04T01:17:27;3.80;99.90
35246;DHT22;21379;50.962;6.960;2023-03-04T01:19:53;3.80;99.90
35246;DHT22;21379;50.962;6.960;2023-03-04T01:22:20;3.90;99.90
35246;DHT22;21379;50.962;6.960;2023-03-04T01:24:48;3.80;99.90
35246;DHT22;21379;50.962;6.960;2023-03-04T01:27:15;3.80;99.90
35246;DHT22;21379;50.962;6.960;2023-03-04T01:29:42;3.80;99.90
35246;DHT22;21379;50.962;6.960;2023-03-04T01:32:09;3.80;99.90
35246;DHT22;21379;50.962;6.960;2023-03-04T01:34:35;3.90;99.90
35246;DHT22;21379;50.962;6.960;2023-03-04T01:37:02;3.90;99.90
35246;DHT22;21379;50.962;6.960;2023-03-04T01:39:29;3.90;99.90
35246;DHT22;21379;50.962;6.960;2023-03-04T01:41:58;3.90;99.90
35246;DHT22;21379;50.962;6.960;2023-03-04T01:44:25;3.90;99.90
35246;DHT22;21379;50.962;6.960;2023-03-04T01:46:53;3.90;99.90
35246;DHT22;21379;50.962;6.960;2023-03-04T01:49:20;4.00;99.90
35246;DHT22;21379;50.962;6.960;2023-03-04T01:51:49;4.00;99.90
35246;DHT22;21379;50.962;6.960;2023-03-04T01:54:17;4.00;99.90
35246;DHT22;21379;50.962;6.960;2023-03-04T01:56:45;4.00;99.90
35246;DHT22;21379;50.962;6.960;2023-03-04T01:59:15;4.10;99.90
35246;DHT22;21379;50.962;6.960;2023-03-04T02:01:43;4.10;99.90
35246;DHT22;21379;50.962;6.960;2023-03-04T02:04:11;4.10;99.90
35246;DHT22;21379;50.962;6.960;2023-03-04T02:06:40;4.10;99.90
35246;DHT22;21379;50.962;6.960;2023-03-04T02:09:07;4.10;99.90
35246;DHT22;21379;50.962;6.960;2023-03-04T02:11:35;4.10;99.90
35246;DHT22;21379;50.962;6.960;2023-03-04T02:14:03;4.00;99.90
35246;DHT22;21379;50.962;6.960;2023-03-04T02:16:32;4.10;99.90
35246;DHT22;21379;50.962;6.960;2023-03-04T02:18:59;4.00;99.90
35246;DHT22;21379;50.962;6.960;2023-03-04T02:21:28;4.00;99.90
35246;DHT22;21379;50.962;6.960;2023-03-04T02:24:02;4.00;99.90
35246;DHT22;21379;50.962;6.960;2023-03-04T02:26:33;4.10;99.90
35246;DHT22;21379;50.962;6.960;2023-03-04T02:29:01;4.10;99.90
35246;DHT22;21379;50.962;6.960;2023-03-04T02:31:31;4.10;99.90
35246;DHT22;21379;50.962;6.960;2023-03-04T02:34:00;4.10;99.90
35246;DHT22;21379;50.962;6.960;2023-03-04T02:36:28;4.10;99.90
35246;DHT22;21379;50.962;6.960;2023-03-04T02:39:00;4.10;99.90
35246;DHT22;21379;50.962;6.960;2023-03-04T02:41:28;4.10;99.90
35246;DHT22;21379;50.962;6.960;2023-03-04T02:43:57;4.10;99.90
35246;DHT22;21379;50.962;6.960;2023-03-04T02:46:23;4.10;99.90
35246;DHT22;21379;50.962;6.960;2023-03-04T02:48:51;4.20;99.90
35246;DHT22;21379;50.962;6.960;2023-03-04T02:51:18;4.20;99.90
35246;DHT22;21379;50.962;6.960;2023-03-04T02:53:44;4.20;99.90
35246;DHT22;21379;50.962;6.960;2023-03-04T02:56:11;4.20;99.90
35246;DHT22;21379;50.962;6.960;2023-03-04T02:58:38;4.20;99.90
35246;DHT22;21379;50.962;6.960;2023-03-04T03:01:07;4.20;99.90
35246;DHT22;21379;50.962;6.960;2023-03-04T03:03:34;4.30;99.90
35246;DHT22;21379;50.962;6.960;2023-03-04T03:06:01;4.30;99.90
35246;DHT22;21379;50.962;6.960;2023-03-04T03:08:28;4.30;99.90
35246;DHT22;21379;50.962;6.960;2023-03-04T03:10:54;4.30;99.90
35246;DHT22;21379;50.962;6.960;2023-03-04T03:13:21;4.30;99.90
35246;DHT22;21379;50.962;6.960;2023-03-04T03:15:49;4.30;99.90
35246;DHT22;21379;50.962;6.960;2023-03-04T03:18:17;4.40;99.90
35246;DHT22;21379;50.962;6.960;2023-03-04T03:20:44;4.30;99.90
35246;DHT22;21379;50.962;6.960;2023-03-04T03:23:11;4.30;99.90
35246;DHT22;21379;50.962;6.960;2023-03-04T03:25:38;4.30;99.90
35246;DHT22;21379;50.962;6.960;2023-03-04T03:28:05;4.30;99.90
35246;DHT22;21379;50.962;6.960;2023-03-04T03:30:32;4.40;99.90
35246;DHT22;21379;50.962;6.960;2023-03-04T03:32:59;4.30;99.90
35246;DHT22;21379;50.962;6.960;2023-03-04T03:35:27;4.40;99.90
35246;DHT22;21379;50.962;6.960;2023-03-04T03:37:54;4.40;99.90
35246;DHT22;21379;50.962;6.960;2023-03-04T03:40:20;4.40;99.90
35246;DHT22;21379;50.962;6.960;2023-03-04T03:42:47;4.40;99.90
35246;DHT22;21379;50.962;6.960;2023-03-04T03:45:14;4.40;99.90
35246;DHT22;21379;50.962;6.960;2023-03-04T03:47:41;4.40;99.90
35246;DHT22;21379;50.962;6.960;2023-03-04T03:50:08;4.40;99.90
35246;DHT22;21379;50.962;6.960;2023-03-04T03:52:37;4.40;99.90
35246;DHT22;21379;50.962;6.960;2023-03-04T03:55:04;4.40;99.90
35246;DHT22;21379;50.962;6.960;2023-03-04T03:57:31;4.40;99.90
35246;DHT22;21379;50.962;6.960;2023-03-04T03:59:58;4.50;99.90
35246;DHT22;21379;50.962;6.960;2023-03-04T04:02:25;4.50;99.90
35246;DHT22;21379;50.962;6.960;2023-03-04T04:04:52;4.40;99.90
35246;DHT22;21379;50.962;6.960;2023-03-04T04:07:18;4.50;99.90
35246;DHT22;21379;50.962;6.960;2023-03-04T04:09:47;4.40;99.90
35246;DHT22;21379;50.962;6.960;2023-03-04T04:12:14;4.40;99.90
35246;DHT22;21379;50.962;6.960;2023-03-04T04:14:42;4.40;99.90
35246;DHT22;21379;50.962;6.960;2023-03-04T04:17:09;4.40;99.90
35246;DHT22;21379;50.962;6.960;2023-03-04T04:19:36;4.50;99.90
35246;DHT22;21379;50.962;6.960;2023-03-04T04:22:05;4.50;99.90
35246;DHT22;21379;50.962;6.960;2023-03-04T04:24:32;4.40;99.90
35246;DHT22;21379;50.962;6.960;2023-03-04T04:27:00;4.50;99.90
35246;DHT22;21379;50.962;6.960;2023-03-04T04:29:29;4.40;99.90
35246;DHT22;21379;50.962;6.960;2023-03-04T04:31:55;4.50;99.90
35246;DHT22;21379;50.962;6.960;2023-03-04T04:34:22;4.50;99.90
35246;DHT22;21379;50.962;6.960;2023-03-04T04:36:49;4.50;99.90
35246;DHT22;21379;50.962;6.960;2023-03-04T04:39:16;4.50;99.90
35246;DHT22;21379;50.962;6.960;2023-03-04T04:41:44;4.50;99.90
35246;DHT22;21379;50.962;6.960;2023-03-04T04:44:12;4.40;99.90
35246;DHT22;21379;50.962;6.960;2023-03-04T04:46:39;4.50;99.90
35246;DHT22;21379;50.962;6.960;2023-03-04T04:49:07;4.50;99.90
35246;DHT22;21379;50.962;6.960;2023-03-04T04:51:35;4.50;99.90
35246;DHT22;21379;50.962;6.960;2023-03-04T04:54:03;4.40;99.90
35246;DHT22;21379;50.962;6.960;2023-03-04T04:56:30;4.40;99.90
35246;DHT22;21379;50.962;6.960;2023-03-04T04:59:00;4.50;99.90
35246;DHT22;21379;50.962;6.960;2023-03-04T05:01:29;4.50;99.90
35246;DHT22;21379;50.962;6.960;2023-03-04T05:03:56;4.50;99.90
35246;DHT22;21379;50.962;6.960;2023-03-04T05:06:23;4.50;99.90
35246;DHT22;21379;50.962;6.960;2023-03-04T05:08:50;4.50;99.90
35246;DHT22;21379;50.962;6.960;2023-03-04T05:11:18;4.50;99.90
35246;DHT22;21379;50.962;6.960;2023-03-04T05:13:45;4.50;99.90
35246;DHT22;21379;50.962;6.960;2023-03-04T05:16:12;4.60;99.90
35246;DHT22;21379;50.962;6.960;2023-03-04T05:18:40;4.60;99.90
35246;DHT22;21379;50.962;6.960;2023-03-04T05:21:08;4.50;99.90
35246;DHT22;21379;50.962;6.960;2023-03-04T05:23:37;4.60;99.90
35246;DHT22;21379;50.962;6.960;2023-03-04T05:26:05;4.60;99.90
35246;DHT22;21379;50.962;6.960;2023-03-04T05:28:33;4.70;99.90
35246;DHT22;21379;50.962;6.960;2023-03-04T05:31:00;4.70;99.90
35246;DHT22;21379;50.962;6.960;2023-03-04T05:33:27;4.70;99.90
35246;DHT22;21379;50.962;6.960;2023-03-04T05:35:55;4.70;99.90
35246;DHT22;21379;50.962;6.960;2023-03-04T05:38:22;4.70;99.90
35246;DHT22;21379;50.962;6.960;2023-03-04T05:40:55;4.70;99.90
35246;DHT22;21379;50.962;6.960;2023-03-04T05:43:22;4.70;99.90
35246;DHT22;21379;50.962;6.960;2023-03-04T05:45:49;4.70;99.90
35246;DHT22;21379;50.962;6.960;2023-03-04T05:48:17;4.70;99.90
35246;DHT22;21379;50.962;6.960;2023-03-04T05:50:44;4.70;99.90
35246;DHT22;21379;50.962;6.960;2023-03-04T05:53:12;4.70;99.90
35246;DHT22;21379;50.962;6.960;2023-03-04T05:55:39;4.70;99.90
35246;DHT22;21379;50.962;6.960;2023-03-04T05:58:06;4.70;99.90
35246;DHT22;21379;50.962;6.960;2023-03-04T06:00:32;4.70;99.90
35246;DHT22;21379;50.962;6.960;2023-03-04T06:02:59;4.70;99.90
35246;DHT22;21379;50.962;6.960;2023-03-04T06:05:26;4.70;99.90
35246;DHT22;21379;50.962;6.960;2023-03-04T06:07:53;4.70;99.90
35246;DHT22;21379;50.962;6.960;2023-03-04T06:10:21;4.70;99.90
35246;DHT22;21379;50.962;6.960;2023-03-04T06:12:48;4.70;99.90
35246;DHT22;21379;50.962;6.960;2023-03-04T06:15:15;4.70;99.90
35246;DHT22;21379;50.962;6.960;2023-03-04T06:17:44;4.70;99.90
35246;DHT22;21379;50.962;6.960;2023-03-04T06:20:12;4.80;99.90
35246;DHT22;21379;50.962;6.960;2023-03-04T06:22:39;4.80;99.90
35246;DHT22;21379;50.962;6.960;2023-03-04T06:25:06;4.80;99.90
35246;DHT22;21379;50.962;6.960;2023-03-04T06:27:35;4.80;99.90
35246;DHT22;21379;50.962;6.960;2023-03-04T06:30:02;4.80;99.90
35246;DHT22;21379;50.962;6.960;2023-03-04T06:32:29;4.80;99.90
35246;DHT22;21379;50.962;6.960;2023-03-04T06:34:56;4.80;99.90
35246;DHT22;21379;50.962;6.960;2023-03-04T06:37:22;4.80;99.90
35246;DHT22;21379;50.962;6.960;2023-03-04T06:39:49;4.90;99.90
35246;DHT22;21379;50.962;6.960;2023-03-04T06:42:16;4.80;99.90
35246;DHT22;21379;50.962;6.960;2023-03-04T06:44:45;4.80;99.90
35246;DHT22;21379;50.962;6.960;2023-03-04T06:47:13;4.80;99.90
35246;DHT22;21379;50.962;6.960;2023-03-04T06:49:41;4.90;99.90
35246;DHT22;21379;50.962;6.960;2023-03-04T06:52:07;4.90;99.90
35246;DHT22;21379;50.962;6.960;2023-03-04T06:54:35;4.90;99.90
35246;DHT22;21379;50.962;6.960;2023-03-04T06:57:02;4.90;99.90
35246;DHT22;21379;50.962;6.960;2023-03-04T06:59:29;4.90;99.90
35246;DHT22;21379;50.962;6.960;2023-03-04T07:01:58;4.90;99.90
35246;DHT22;21379;50.962;6.960;2023-03-04T07:04:24;4.90;99.90
35246;DHT22;21379;50.962;6.960;2023-03-04T07:06:51;4.90;99.90
35246;DHT22;21379;50.962;6.960;2023-03-04T07:09:18;5.00;99.90
35246;DHT22;21379;50.962;6.960;2023-03-04T07:11:45;5.00;99.90
35246;DHT22;21379;50.962;6.960;2023-03-04T07:14:12;5.00;99.90
35246;DHT22;21379;50.962;6.960;2023-03-04T07:16:39;5.00;99.90
35246;DHT22;21379;50.962;6.960;2023-03-04T07:19:07;5.00;99.90
35246;DHT22;21379;50.962;6.960;2023-03-04T07:21:34;5.00;99.90
35246;DHT22;21379;50.962;6.960;2023-03-04T07:24:01;5.00;99.90
35246;DHT22;21379;50.962;6.960;2023-03-04T07:26:27;5.00;99.90
35246;DHT22;21379;50.962;6.960;2023-03-04T07:28:54;5.00;99.90
35246;DHT22;21379;50.962;6.960;2023-03-04T07:31:24;5.00;99.90
35246;DHT22;21379;50.962;6.960;2023-03-04T07:33:54;5.00;99.90
35246;DHT22;21379;50.962;6.960;2023-03-04T07:36:22;5.00;99.90
35246;DHT22;21379;50.962;6.960;2023-03-04T07:38:50;5.00;99.90
35246;DHT22;21379;50.962;6.960;2023-03-04T07:41:20;5.00;99.90
35246;DHT22;21379;50.962;6.960;2023-03-04T07:43:47;5.10;99.90
35246;DHT22;21379;50.962;6.960;2023-03-04T07:46:14;5.10;99.90
35246;DHT22;21379;50.962;6.960;2023-03-04T07:48:41;5.10;99.90
35246;DHT22;21379;50.962;6.960;2023-03-04T07:51:08;5.10;99.90
35246;DHT22;21379;50.962;6.960;2023-03-04T07:53:38;5.10;99.90
35246;DHT22;21379;50.962;6.960;2023-03-04T07:56:07;5.10;99.90
35246;DHT22;21379;50.962;6.960;2023-03-04T07:58:34;5.20;99.90
35246;DHT22;21379;50.962;6.960;2023-03-04T08:01:06;5.20;99.90
35246;DHT22;21379;50.962;6.960;2023-03-04T08:03:33;5.20;99.90
35246;DHT22;21379;50.962;6.960;2023-03-04T08:06:03;5.20;99.90
35246;DHT22;21379;50.962;6.960;2023-03-04T08:08:30;5.20;99.90
35246;DHT22;21379;50.962;6.960;2023-03-04T08:10:58;5.20;99.90
35246;DHT22;21379;50.962;6.960;2023-03-04T08:13:25;5.20;99.90
35246;DHT22;21379;50.962;6.960;2023-03-04T08:15:54;5.20;99.90
35246;DHT22;21379;50.962;6.960;2023-03-04T08:18:21;5.30;99.90
35246;DHT22;21379;50.962;6.960;2023-03-04T08:20:48;5.30;99.90
35246;DHT22;21379;50.962;6.960;2023-03-04T08:23:15;5.30;99.90
35246;DHT22;21379;50.962;6.960;2023-03-04T08:25:41;5.30;99.90
35246;DHT22;21379;50.962;6.960;2023-03-04T08:28:10;5.40;99.90
35246;DHT22;21379;50.962;6.960;2023-03-04T08:30:38;5.40;99.90
35246;DHT22;21379;50.962;6.960;2023-03-04T08:33:05;5.40;99.90
35246;DHT22;21379;50.962;6.960;2023-03-04T08:35:32;5.40;99.90
35246;DHT22;21379;50.962;6.960;2023-03-04T08:37:59;5.50;99.90
35246;DHT22;21379;50.962;6.960;2023-03-04T08:40:26;5.40;99.90
35246;DHT22;21379;50.962;6.960;2023-03-04T08:42:52;5.40;99.90
35246;DHT22;21379;50.962;6.960;2023-03-04T08:45:21;5.50;99.90
35246;DHT22;21379;50.962;6.960;2023-03-04T08:47:47;5.40;99.90
35246;DHT22;21379;50.962;6.960;2023-03-04T08:50:14;5.40;99.90
35246;DHT22;21379;50.962;6.960;2023-03-04T08:52:41;5.40;99.90
35246;DHT22;21379;50.962;6.960;2023-03-04T08:55:08;5.50;99.90
35246;DHT22;21379;50.962;6.960;2023-03-04T08:57:35;5.50;99.90
35246;DHT22;21379;50.962;6.960;2023-03-04T09:00:02;5.50;99.90
35246;DHT22;21379;50.962;6.960;2023-03-04T09:02:31;5.50;99.90
35246;DHT22;21379;50.962;6.960;2023-03-04T09:04:58;5.60;99.90
35246;DHT22;21379;50.962;6.960;2023-03-04T09:07:24;5.60;99.90
35246;DHT22;21379;50.962;6.960;2023-03-04T09:09:51;5.60;99.90
35246;DHT22;21379;50.962;6.960;2023-03-04T09:12:18;5.70;99.90
35246;DHT22;21379;50.962;6.960;2023-03-04T09:14:45;5.70;99.90
35246;DHT22;21379;50.962;6.960;2023-03-04T09:17:12;5.80;99.90
35246;DHT22;21379;50.962;6.960;2023-03-04T09:19:40;6.00;99.90
35246;DHT22;21379;50.962;6.960;2023-03-04T09:22:07;6.10;99.90
35246;DHT22;21379;50.962;6.960;2023-03-04T09:24:33;6.10;99.90
35246;DHT22;21379;50.962;6.960;2023-03-04T09:27:00;6.10;99.90
35246;DHT22;21379;50.962;6.960;2023-03-04T09:29:27;6.10;99.90
35246;DHT22;21379;50.962;6.960;2023-03-04T09:31:54;6.10;99.90
35246;DHT22;21379;50.962;6.960;2023-03-04T09:34:21;6.30;99.90
35246;DHT22;21379;50.962;6.960;2023-03-04T09:36:49;6.20;99.90
35246;DHT22;21379;50.962;6.960;2023-03-04T09:39:16;6.30;99.90
35246;DHT22;21379;50.962;6.960;2023-03-04T09:41:45;6.40;99.90
35246;DHT22;21379;50.962;6.960;2023-03-04T09:44:20;6.30;99.90
35246;DHT22;21379;50.962;6.960;2023-03-04T09:46:48;6.30;99.90
35246;DHT22;21379;50.962;6.960;2023-03-04T09:49:15;6.30;99.90
35246;DHT22;21379;50.962;6.960;2023-03-04T09:51:50;6.20;99.90
35246;DHT22;21379;50.962;6.960;2023-03-04T09:54:32;6.20;99.90
35246;DHT22;21379;50.962;6.960;2023-03-04T09:57:14;6.20;99.90
35246;DHT22;21379;50.962;6.960;2023-03-04T09:59:49;6.20;99.90
35246;DHT22;21379;50.962;6.960;2023-03-04T10:02:25;6.10;99.90
35246;DHT22;21379;50.962;6.960;2023-03-04T10:04:58;6.00;99.90
35246;DHT22;21379;50.962;6.960;2023-03-04T10:07:32;6.10;99.90
35246;DHT22;21379;50.962;6.960;2023-03-04T10:10:02;6.10;99.90
35246;DHT22;21379;50.962;6.960;2023-03-04T10:12:32;6.10;99.90
35246;DHT22;21379;50.962;6.960;2023-03-04T10:15:02;6.00;99.90
35246;DHT22;21379;50.962;6.960;2023-03-04T10:17:34;6.10;99.90
35246;DHT22;21379;50.962;6.960;2023-03-04T10:20:04;6.20;99.90
35246;DHT22;21379;50.962;6.960;2023-03-04T10:22:36;6.30;99.90
35246;DHT22;21379;50.962;6.960;2023-03-04T10:25:17;6.40;99.90
35246;DHT22;21379;50.962;6.960;2023-03-04T10:27:49;6.40;99.90
35246;DHT22;21379;50.962;6.960;2023-03-04T10:30:22;6.40;99.90
35246;DHT22;21379;50.962;6.960;2023-03-04T10:32:52;6.50;99.90
35246;DHT22;21379;50.962;6.960;2023-03-04T10:35:22;6.50;99.90
35246;DHT22;21379;50.962;6.960;2023-03-04T10:37:53;6.50;99.90
35246;DHT22;21379;50.962;6.960;2023-03-04T10:40:21;6.50;99.90
35246;DHT22;21379;50.962;6.960;2023-03-04T10:42:49;6.40;99.90
35246;DHT22;21379;50.962;6.960;2023-03-04T10:45:20;6.40;99.90
35246;DHT22;21379;50.962;6.960;2023-03-04T10:47:54;6.60;99.90
35246;DHT22;21379;50.962;6.960;2023-03-04T10:50:23;6.90;99.90
35246;DHT22;21379;50.962;6.960;2023-03-04T10:52:52;7.40;99.90
35246;DHT22;21379;50.962;6.960;2023-03-04T10:55:22;7.40;99.90
35246;DHT22;21379;50.962;6.960;2023-03-04T10:57:51;7.20;99.90
35246;DHT22;21379;50.962;6.960;2023-03-04T11:00:26;7.00;99.90
35246;DHT22;21379;50.962;6.960;2023-03-04T11:03:22;6.90;99.90
35246;DHT22;21379;50.962;6.960;2023-03-04T11:05:49;6.70;99.90
35246;DHT22;21379;50.962;6.960;2023-03-04T11:08:19;6.70;99.90
35246;DHT22;21379;50.962;6.960;2023-03-04T11:10:47;6.80;99.90
35246;DHT22;21379;50.962;6.960;2023-03-04T11:13:19;6.90;99.90
35246;DHT22;21379;50.962;6.960;2023-03-04T11:15:51;7.00;99.90
35246;DHT22;21379;50.962;6.960;2023-03-04T11:18:22;7.50;99.90
35246;DHT22;21379;50.962;6.960;2023-03-04T11:20:53;7.60;99.90
35246;DHT22;21379;50.962;6.960;2023-03-04T11:23:30;7.60;99.90
35246;DHT22;21379;50.962;6.960;2023-03-04T11:26:01;7.70;99.90
35246;DHT22;21379;50.962;6.960;2023-03-04T11:28:36;7.70;99.90
35246;DHT22;21379;50.962;6.960;2023-03-04T11:31:09;7.50;99.90
35246;DHT22;21379;50.962;6.960;2023-03-04T11:33:43;7.60;99.90
35246;DHT22;21379;50.962;6.960;2023-03-04T11:36:20;7.50;99.90
35246;DHT22;21379;50.962;6.960;2023-03-04T11:38:50;7.50;99.90
35246;DHT22;21379;50.962;6.960;2023-03-04T11:41:21;7.40;99.90
35246;DHT22;21379;50.962;6.960;2023-03-04T11:43:50;7.40;99.90
35246;DHT22;21379;50.962;6.960;2023-03-04T11:46:55;7.30;99.90
35246;DHT22;21379;50.962;6.960;2023-03-04T11:49:44;7.20;99.90
35246;DHT22;21379;50.962;6.960;2023-03-04T11:52:17;7.30;99.90
35246;DHT22;21379;50.962;6.960;2023-03-04T11:54:55;7.30;99.90
35246;DHT22;21379;50.962;6.960;2023-03-04T11:57:32;7.30;99.90
35246;DHT22;21379;50.962;6.960;2023-03-04T12:00:19;7.30;99.90
35246;DHT22;21379;50.962;6.960;2023-03-04T12:03:02;7.30;99.90
35246;DHT22;21379;50.962;6.960;2023-03-04T12:05:45;7.30;99.90
35246;DHT22;21379;50.962;6.960;2023-03-04T12:11:16;7.10;99.90
35246;DHT22;21379;50.962;6.960;2023-03-04T12:14:15;7.10;99.90
35246;DHT22;21379;50.962;6.960;2023-03-04T12:17:03;7.10;99.90
35246;DHT22;21379;50.962;6.960;2023-03-04T12:19:40;7.10;99.90
35246;DHT22;21379;50.962;6.960;2023-03-04T12:22:27;7.20;99.90
35246;DHT22;21379;50.962;6.960;2023-03-04T12:25:31;7.50;99.90
35246;DHT22;21379;50.962;6.960;2023-03-04T12:28:09;7.70;99.90
35246;DHT22;21379;50.962;6.960;2023-03-04T12:30:47;7.90;99.90
35246;DHT22;21379;50.962;6.960;2023-03-04T12:33:26;7.80;99.90
35246;DHT22;21379;50.962;6.960;2023-03-04T12:36:01;7.70;99.90
35246;DHT22;21379;50.962;6.960;2023-03-04T12:38:33;7.70;99.90
35246;DHT22;21379;50.962;6.960;2023-03-04T12:41:26;7.50;99.90
35246;DHT22;21379;50.962;6.960;2023-03-04T12:44:03;7.60;99.90
35246;DHT22;21379;50.962;6.960;2023-03-04T12:46:41;7.60;99.90
35246;DHT22;21379;50.962;6.960;2023-03-04T12:49:31;7.70;99.90
35246;DHT22;21379;50.962;6.960;2023-03-04T12:52:08;7.70;99.90
35246;DHT22;21379;50.962;6.960;2023-03-04T12:54:39;7.70;99.90
35246;DHT22;21379;50.962;6.960;2023-03-04T12:57:11;7.70;99.90
35246;DHT22;21379;50.962;6.960;2023-03-04T12:59:44;7.60;99.90
35246;DHT22;21379;50.962;6.960;2023-03-04T13:02:33;7.70;99.90
35246;DHT22;21379;50.962;6.960;2023-03-04T13:05:14;7.80;99.90
35246;DHT22;21379;50.962;6.960;2023-03-04T13:07:49;7.80;99.90
35246;DHT22;21379;50.962;6.960;2023-03-04T13:10:18;7.70;99.90
35246;DHT22;21379;50.962;6.960;2023-03-04T13:12:50;7.70;99.90
35246;DHT22;21379;50.962;6.960;2023-03-04T13:15:28;7.60;99.90
35246;DHT22;21379;50.962;6.960;2023-03-04T13:17:55;7.60;99.90
35246;DHT22;21379;50.962;6.960;2023-03-04T13:20:32;7.60;99.90
35246;DHT22;21379;50.962;6.960;2023-03-04T13:22:59;7.50;99.90
35246;DHT22;21379;50.962;6.960;2023-03-04T13:25:38;7.50;99.90
35246;DHT22;21379;50.962;6.960;2023-03-04T13:28:20;7.60;99.90
35246;DHT22;21379;50.962;6.960;2023-03-04T13:31:20;7.70;99.90
35246;DHT22;21379;50.962;6.960;2023-03-04T13:33:58;7.90;99.90
35246;DHT22;21379;50.962;6.960;2023-03-04T13:36:29;7.90;99.90
35246;DHT22;21379;50.962;6.960;2023-03-04T13:38:58;8.00;99.90
35246;DHT22;21379;50.962;6.960;2023-03-04T13:41:29;8.00;99.90
35246;DHT22;21379;50.962;6.960;2023-03-04T13:43:57;8.00;99.90
35246;DHT22;21379;50.962;6.960;2023-03-04T13:46:38;7.90;99.90
35246;DHT22;21379;50.962;6.960;2023-03-04T13:49:14;7.80;99.90
35246;DHT22;21379;50.962;6.960;2023-03-04T13:51:43;7.80;99.90
35246;DHT22;21379;50.962;6.960;2023-03-04T13:54:14;7.90;99.90
35246;DHT22;21379;50.962;6.960;2023-03-04T13:56:44;7.90;99.90
35246;DHT22;21379;50.962;6.960;2023-03-04T13:59:26;7.90;99.90
35246;DHT22;21379;50.962;6.960;2023-03-04T14:02:00;7.90;99.90
35246;DHT22;21379;50.962;6.960;2023-03-04T14:04:30;7.90;99.90
35246;DHT22;21379;50.962;6.960;2023-03-04T14:07:00;7.80;99.90
35246;DHT22;21379;50.962;6.960;2023-03-04T14:09:29;7.80;99.90
35246;DHT22;21379;50.962;6.960;2023-03-04T14:11:57;7.80;99.90
35246;DHT22;21379;50.962;6.960;2023-03-04T14:14:29;7.80;99.90
35246;DHT22;21379;50.962;6.960;2023-03-04T14:16:59;7.60;99.90
35246;DHT22;21379;50.962;6.960;2023-03-04T14:19:28;7.60;99.90
35246;DHT22;21379;50.962;6.960;2023-03-04T14:21:55;7.50;99.90
35246;DHT22;21379;50.962;6.960;2023-03-04T14:24:23;7.50;99.90
35246;DHT22;21379;50.962;6.960;2023-03-04T14:27:03;7.50;99.90
35246;DHT22;21379;50.962;6.960;2023-03-04T14:29:32;7.40;99.90
35246;DHT22;21379;50.962;6.960;2023-03-04T14:32:00;7.40;99.90
35246;DHT22;21379;50.962;6.960;2023-03-04T14:34:29;7.50;99.90
35246;DHT22;21379;50.962;6.960;2023-03-04T14:36:58;7.50;99.90
35246;DHT22;21379;50.962;6.960;2023-03-04T14:39:26;7.50;99.90
35246;DHT22;21379;50.962;6.960;2023-03-04T14:41:57;7.50;99.90
35246;DHT22;21379;50.962;6.960;2023-03-04T14:44:29;7.60;99.90
35246;DHT22;21379;50.962;6.960;2023-03-04T14:47:04;7.60;99.90
35246;DHT22;21379;50.962;6.960;2023-03-04T14:49:33;7.70;99.90
35246;DHT22;21379;50.962;6.960;2023-03-04T14:52:01;7.70;99.90
35246;DHT22;21379;50.962;6.960;2023-03-04T14:54:31;7.70;99.90
35246;DHT22;21379;50.962;6.960;2023-03-04T14:57:00;7.70;99.90
35246;DHT22;21379;50.962;6.960;2023-03-04T14:59:40;7.70;99.90
35246;DHT22;21379;50.962;6.960;2023-03-04T15:02:22;7.60;99.90
35246;DHT22;21379;50.962;6.960;2023-03-04T15:04:58;7.60;99.90
35246;DHT22;21379;50.962;6.960;2023-03-04T15:07:32;7.50;99.90
35246;DHT22;21379;50.962;6.960;2023-03-04T15:10:03;7.50;99.90
35246;DHT22;21379;50.962;6.960;2023-03-04T15:12:32;7.50;99.90
35246;DHT22;21379;50.962;6.960;2023-03-04T15:15:01;7.60;99.90
35246;DHT22;21379;50.962;6.960;2023-03-04T15:17:35;7.60;99.90
35246;DHT22;21379;50.962;6.960;2023-03-04T15:20:23;7.60;99.90
35246;DHT22;21379;50.962;6.960;2023-03-04T15:22:58;7.60;99.90
35246;DHT22;21379;50.962;6.960;2023-03-04T15:25:25;7.50;99.90
35246;DHT22;21379;50.962;6.960;2023-03-04T15:27:53;7.50;99.90
35246;DHT22;21379;50.962;6.960;2023-03-04T15:30:22;7.50;99.90
35246;DHT22;21379;50.962;6.960;2023-03-04T15:32:51;7.50;99.90
35246;DHT22;21379;50.962;6.960;2023-03-04T15:35:18;7.50;99.90
35246;DHT22;21379;50.962;6.960;2023-03-04T15:37:46;7.50;99.90
35246;DHT22;21379;50.962;6.960;2023-03-04T15:40:21;7.40;99.90
35246;DHT22;21379;50.962;6.960;2023-03-04T15:42:49;7.40;99.90
35246;DHT22;21379;50.962;6.960;2023-03-04T15:45:21;7.40;99.90
35246;DHT22;21379;50.962;6.960;2023-03-04T15:47:48;7.40;99.90
35246;DHT22;21379;50.962;6.960;2023-03-04T15:50:18;7.40;99.90
35246;DHT22;21379;50.962;6.960;2023-03-04T15:52:45;7.30;99.90
35246;DHT22;21379;50.962;6.960;2023-03-04T15:55:14;7.30;99.90
35246;DHT22;21379;50.962;6.960;2023-03-04T15:57:42;7.30;99.90
35246;DHT22;21379;50.962;6.960;2023-03-04T16:00:11;7.20;99.90
35246;DHT22;21379;50.962;6.960;2023-03-04T16:02:38;7.30;99.90
35246;DHT22;21379;50.962;6.960;2023-03-04T16:05:06;7.20;99.90